Time;durP1;ratioP1;P1;durP2;ratioP2;P2;SDS_P1;SDS_P2;PMS_P1;PMS_P2;Temp;Humidity;BMP_temperature;BMP_pressure;BME280_temperature;BME280_humidity;BME280_pressure;Samples;Min_cycle;Max_cycle;Signal;HPM_P1;HPM_P2
2022/04/30 00:01:07;;;;;;;13.63;12.33;;;;;;;17.68;79.76;99944.47;5095632;28;20573;-76
2022/04/30 00:03:34;;;;;;;14.47;13.20;;;;;;;17.66;79.97;99940.38;5096173;28;20248;-76
2022/04/30 00:06:02;;;;;;;14.30;12.93;;;;;;;17.64;79.81;99940.63;5095612;28;20240;-76
2022/04/30 00:08:29;;;;;;;15.07;13.53;;;;;;;17.65;79.60;99936.91;5096455;28;20203;-76
2022/04/30 00:10:56;;;;;;;14.43;12.93;;;;;;;17.66;79.93;99933.16;5096206;28;20197;-76
2022/04/30 00:13:22;;;;;;;13.67;12.37;;;;;;;17.68;79.87;99932.94;5096201;28;20195;-76
2022/04/30 00:15:49;;;;;;;15.33;12.80;;;;;;;17.60;78.55;99930.56;5096448;28;20199;-74
2022/04/30 00:18:16;;;;;;;14.03;12.80;;;;;;;17.59;77.87;99939.66;5095244;28;20698;-75
2022/04/30 00:20:46;;;;;;;15.23;13.73;;;;;;;17.55;77.15;99933.13;5095565;28;20257;-74
2022/04/30 00:23:21;;;;;;;12.77;11.47;;;;;;;17.51;77.30;99937.34;5095576;28;20558;-75
2022/04/30 00:25:50;;;;;;;14.90;13.40;;;;;;;17.52;77.28;99938.97;5096128;28;20237;-75
2022/04/30 00:28:17;;;;;;;14.97;13.33;;;;;;;17.50;77.12;99943.72;5096233;28;20199;-75
2022/04/30 00:30:45;;;;;;;14.80;13.40;;;;;;;17.46;77.08;99940.69;5095636;28;20197;-75
2022/04/30 00:33:13;;;;;;;15.50;13.83;;;;;;;17.48;77.34;99938.59;5094649;28;20581;-75
2022/04/30 00:35:40;;;;;;;14.07;12.67;;;;;;;17.47;77.48;99928.09;5094911;28;20206;-74
2022/04/30 00:38:07;;;;;;;14.60;13.20;;;;;;;17.49;77.32;99937.56;5095183;28;20221;-75
2022/04/30 00:40:35;;;;;;;15.83;13.43;;;;;;;17.45;77.16;99938.25;5095234;28;20194;-75
2022/04/30 00:43:02;;;;;;;15.87;14.27;;;;;;;17.42;77.49;99927.94;5095154;28;20196;-75
2022/04/30 00:45:28;;;;;;;15.33;13.90;;;;;;;17.05;77.85;99926.38;5094834;28;20257;-75
2022/04/30 00:47:55;;;;;;;14.77;13.43;;;;;;;17.16;78.14;99917.56;5094766;28;20201;-75
2022/04/30 00:50:23;;;;;;;15.03;13.43;;;;;;;17.12;77.76;99919.06;5095037;28;20199;-74
2022/04/30 00:52:51;;;;;;;15.60;14.10;;;;;;;17.13;77.62;99913.47;5094935;28;20203;-74
2022/04/30 00:55:22;;;;;;;14.50;13.03;;;;;;;17.19;77.67;99923.28;5093318;28;20244;-75
2022/04/30 00:57:55;;;;;;;15.07;13.40;;;;;;;17.22;77.65;99927.38;5094559;28;20215;-75
2022/04/30 01:00:22;;;;;;;15.13;13.77;;;;;;;17.27;77.61;99919.47;5095723;28;20206;-74
2022/04/30 01:02:49;;;;;;;15.50;13.70;;;;;;;17.30;77.39;99919.00;5094665;28;20198;-74
2022/04/30 01:05:16;;;;;;;14.60;13.20;;;;;;;17.26;77.31;99923.19;5094478;28;20194;-76
2022/04/30 01:07:42;;;;;;;15.57;13.83;;;;;;;17.21;77.09;99920.38;5095494;28;20227;-76
2022/04/30 01:10:10;;;;;;;15.43;14.03;;;;;;;17.11;77.79;99920.13;5095761;28;20203;-76
2022/04/30 01:12:37;;;;;;;15.07;13.53;;;;;;;17.11;78.02;99912.88;5095402;28;20535;-76
2022/04/30 01:15:07;;;;;;;16.17;14.47;;;;;;;17.08;78.13;99915.19;5094886;28;20196;-76
2022/04/30 01:17:35;;;;;;;15.30;13.90;;;;;;;17.07;78.08;99909.00;5094468;28;20272;-77
2022/04/30 01:20:04;;;;;;;14.83;13.43;;;;;;;17.08;78.22;99910.66;5094430;28;20189;-76
2022/04/30 01:22:34;;;;;;;17.30;15.50;;;;;;;17.11;78.31;99909.38;5094144;28;20187;-76
2022/04/30 01:25:04;;;;;;;15.77;14.20;;;;;;;16.88;79.39;99909.28;5094155;28;20680;-76
2022/04/30 01:27:32;;;;;;;15.53;14.07;;;;;;;16.84;79.08;99900.03;5094054;28;20192;-76
2022/04/30 01:30:01;;;;;;;16.23;14.80;;;;;;;16.85;79.44;99896.28;5093971;28;20197;-76
2022/04/30 01:38:01;;;;;;;15.87;13.70;;;;;;;16.88;79.93;99904.72;5094055;28;20207;-76
2022/04/30 01:40:29;;;;;;;15.03;13.47;;;;;;;16.90;79.58;99901.81;5093831;28;20580;-76
2022/04/30 01:43:01;;;;;;;15.63;14.00;;;;;;;16.94;79.69;99911.06;5093742;28;20230;-76
2022/04/30 01:45:28;;;;;;;17.50;15.07;;;;;;;16.92;79.54;99907.78;5093724;28;20215;-75
2022/04/30 01:47:56;;;;;;;16.67;14.23;;;;;;;16.72;80.66;99909.88;5094501;28;20221;-75
2022/04/30 01:50:24;;;;;;;17.20;14.57;;;;;;;16.65;80.57;99903.81;5093384;28;20569;-76
2022/04/30 01:52:51;;;;;;;16.23;14.07;;;;;;;16.69;81.05;99905.78;5093984;28;20199;-76
2022/04/30 01:55:17;;;;;;;14.97;13.57;;;;;;;16.80;81.09;99909.59;5093761;28;20224;-76
2022/04/30 01:57:46;;;;;;;16.13;14.63;;;;;;;16.81;81.04;99900.47;5093662;28;20191;-76
2022/04/30 02:00:15;;;;;;;16.60;14.27;;;;;;;16.81;80.98;99904.00;5093752;28;20237;-76
2022/04/30 02:02:45;;;;;;;14.97;13.53;;;;;;;16.86;80.63;99890.72;5093923;28;20191;-76
2022/04/30 02:05:13;;;;;;;14.20;13.00;;;;;;;16.94;80.23;99903.00;5093539;28;20195;-76
2022/04/30 02:07:45;;;;;;;18.83;14.40;;;;;;;16.97;79.74;99902.53;5094122;28;20694;-75
2022/04/30 02:10:13;;;;;;;15.33;13.87;;;;;;;16.98;80.34;99901.50;5093968;28;20183;-76
2022/04/30 02:12:41;;;;;;;15.33;13.77;;;;;;;17.02;79.93;99894.66;5093186;28;20192;-76
2022/04/30 02:15:10;;;;;;;14.47;12.93;;;;;;;17.01;79.91;99895.66;5093629;28;20230;-76
2022/04/30 02:17:40;;;;;;;15.17;13.40;;;;;;;16.92;79.64;99889.00;5093069;28;20195;-75
2022/04/30 02:20:22;;;;;;;16.13;13.53;;;;;;;16.80;79.90;99890.78;5094150;28;20266;-75
2022/04/30 02:22:50;;;;;;;15.67;14.10;;;;;;;16.81;80.13;99885.22;5093566;28;20206;-74
2022/04/30 02:25:20;;;;;;;15.67;12.63;;;;;;;16.86;79.84;99887.22;5092876;28;20213;-76
2022/04/30 02:27:48;;;;;;;14.60;13.10;;;;;;;16.81;79.86;99879.00;5093709;28;20217;-76
2022/04/30 02:30:18;;;;;;;14.33;12.93;;;;;;;16.82;80.04;99888.72;5093692;28;20188;-76
2022/04/30 02:32:48;;;;;;;15.37;13.10;;;;;;;16.82;79.66;99889.53;5093910;28;20385;-76
2022/04/30 02:35:16;;;;;;;14.50;13.10;;;;;;;16.82;79.42;99889.53;5092936;28;20191;-76
2022/04/30 02:37:45;;;;;;;14.97;13.37;;;;;;;16.80;79.87;99898.84;5092649;28;20193;-76
2022/04/30 02:40:14;;;;;;;15.20;12.40;;;;;;;16.77;80.09;99894.75;5093760;28;20218;-76
2022/04/30 02:42:41;;;;;;;21.83;13.50;;;;;;;16.80;79.83;99901.53;5092582;28;20195;-76
2022/04/30 02:45:09;;;;;;;14.87;13.50;;;;;;;16.78;79.59;99899.06;5092870;28;20191;-76
2022/04/30 02:47:38;;;;;;;16.00;13.63;;;;;;;16.81;79.83;99903.16;5092872;28;20194;-76
2022/04/30 02:50:07;;;;;;;15.63;12.40;;;;;;;16.83;79.80;99898.41;5092791;28;20195;-76
2022/04/30 02:52:33;;;;;;;15.93;12.63;;;;;;;16.83;79.96;99901.09;5092724;28;20625;-76
2022/04/30 02:55:00;;;;;;;17.37;12.73;;;;;;;16.83;79.77;99903.78;5093002;28;20195;-76
2022/04/30 02:57:37;;;;;;;13.60;12.07;;;;;;;16.84;79.65;99905.41;5092322;28;20196;-75
2022/04/30 03:00:04;;;;;;;14.10;12.70;;;;;;;16.88;79.64;99898.53;5092303;28;20240;-75
2022/04/30 03:02:31;;;;;;;14.87;12.73;;;;;;;16.73;79.68;99903.47;5092266;28;20199;-75
2022/04/30 03:04:59;;;;;;;14.37;12.20;;;;;;;16.76;79.58;99900.34;5092177;28;20236;-75
2022/04/30 03:07:25;;;;;;;14.60;13.13;;;;;;;16.81;80.02;99900.47;5093536;28;20231;-75
2022/04/30 03:09:52;;;;;;;16.23;13.37;;;;;;;16.77;80.13;99902.81;5092684;28;20191;-75
2022/04/30 03:12:19;;;;;;;14.60;13.10;;;;;;;16.81;80.69;99898.63;5092395;28;20251;-74
2022/04/30 03:14:45;;;;;;;17.07;13.23;;;;;;;16.86;80.48;99897.97;5092914;28;20248;-74
2022/04/30 03:22:42;;;;;;;15.63;14.00;;;;;;;16.92;80.30;99897.88;5092452;28;20183;-75
2022/04/30 03:25:09;;;;;;;15.93;13.87;;;;;;;16.86;80.27;99892.59;5092025;28;20686;-75
2022/04/30 03:27:36;;;;;;;14.80;13.17;;;;;;;16.88;80.33;99888.63;5092213;28;20607;-77
2022/04/30 03:30:03;;;;;;;14.83;13.47;;;;;;;16.86;80.07;99887.22;5091904;28;20281;-73
2022/04/30 03:32:30;;;;;;;15.30;13.63;;;;;;;16.88;80.48;99901.22;5092750;28;20279;-74
2022/04/30 03:34:57;;;;;;;14.23;12.93;;;;;;;16.91;80.68;99896.22;5092188;28;20274;-74
2022/04/30 03:37:24;;;;;;;15.17;13.57;;;;;;;16.95;80.34;99901.97;5092217;28;20195;-74
2022/04/30 03:39:52;;;;;;;16.03;13.30;;;;;;;16.98;80.50;99901.50;5092369;28;20218;-74
2022/04/30 03:42:18;;;;;;;21.10;13.37;;;;;;;17.02;80.52;99900.03;5091800;28;20657;-75
2022/04/30 03:44:45;;;;;;;15.90;12.40;;;;;;;17.04;80.17;99903.28;5092015;28;20739;-75
2022/04/30 03:47:12;;;;;;;15.03;13.43;;;;;;;17.07;80.10;99908.19;5092881;28;20560;-76
2022/04/30 03:49:38;;;;;;;14.93;13.43;;;;;;;17.10;79.59;99913.09;5092059;28;20192;-75
2022/04/30 03:52:08;;;;;;;14.50;13.17;;;;;;;17.10;79.59;99902.34;5092048;28;20195;-76
2022/04/30 03:54:35;;;;;;;16.00;13.63;;;;;;;17.12;79.51;99905.63;5092878;28;20237;-76
2022/04/30 03:57:03;;;;;;;15.70;14.13;;;;;;;17.12;79.87;99916.38;5092233;28;20200;-76
2022/04/30 03:59:30;;;;;;;15.63;13.27;;;;;;;17.15;79.74;99914.03;5092128;28;20224;-74
2022/04/30 04:01:57;;;;;;;17.07;13.60;;;;;;;17.18;79.70;99920.81;5091869;28;20260;-74
2022/04/30 04:04:24;;;;;;;15.47;13.83;;;;;;;17.11;79.31;99909.38;5092247;28;20191;-73
2022/04/30 04:06:50;;;;;;;15.90;13.30;;;;;;;17.19;79.68;99912.53;5092183;28;20265;-74
2022/04/30 04:09:17;;;;;;;16.60;13.00;;;;;;;17.19;79.64;99906.38;5092349;28;20261;-74
2022/04/30 04:11:44;;;;;;;16.10;13.37;;;;;;;17.09;79.61;99911.47;5092170;28;20202;-73
2022/04/30 04:19:40;;;;;;;15.47;13.67;;;;;;;17.01;81.47;99931.41;5092179;28;20256;-74
2022/04/30 04:22:07;;;;;;;14.73;13.23;;;;;;;17.00;80.90;99924.41;5092139;28;20191;-74
2022/04/30 04:27:18;;;;;;;17.00;14.70;;;;;;;17.08;80.76;99934.00;5092138;28;20559;-74
2022/04/30 04:29:47;;;;;;;15.30;13.87;;;;;;;17.09;80.87;99933.75;5094804;28;20679;-74
2022/04/30 04:32:14;;;;;;;14.93;13.53;;;;;;;17.08;80.58;99939.34;5095379;28;20217;-75
2022/04/30 04:34:41;;;;;;;15.33;13.30;;;;;;;17.06;80.00;99928.03;5095351;28;20202;-74
2022/04/30 04:37:07;;;;;;;16.60;14.17;;;;;;;17.02;80.08;99932.22;5094928;28;20669;-74
2022/04/30 04:39:34;;;;;;;14.13;12.70;;;;;;;17.06;79.88;99931.53;5096016;28;20220;-73
2022/04/30 04:42:01;;;;;;;16.33;13.30;;;;;;;17.03;80.42;99936.53;5095284;28;20222;-73
2022/04/30 04:44:28;;;;;;;15.33;13.77;;;;;;;16.97;80.98;99940.09;5095155;28;20275;-73
2022/04/30 04:46:56;;;;;;;15.13;13.53;;;;;;;16.99;80.58;99938.03;5095368;28;20260;-74
2022/04/30 04:49:22;;;;;;;15.63;14.07;;;;;;;17.02;80.52;99937.59;5094800;28;20660;-75
2022/04/30 04:51:49;;;;;;;15.67;12.93;;;;;;;17.00;80.26;99943.19;5095826;28;20230;-75
2022/04/30 04:54:16;;;;;;;18.40;13.93;;;;;;;16.97;80.87;99940.09;5094992;28;20250;-75
2022/04/30 04:56:44;;;;;;;14.77;13.00;;;;;;;16.90;81.24;99939.41;5095092;28;20226;-75
2022/04/30 04:59:10;;;;;;;15.10;13.50;;;;;;;16.89;81.75;99951.16;5094714;28;20610;-75
2022/04/30 05:01:40;;;;;;;15.07;13.47;;;;;;;16.91;81.89;99952.56;5094878;28;20253;-75
2022/04/30 05:04:09;;;;;;;17.00;14.77;;;;;;;16.88;81.03;99957.56;5096279;28;20263;-75
2022/04/30 05:06:35;;;;;;;15.73;14.17;;;;;;;16.89;81.74;99948.47;5094230;28;20227;-74
2022/04/30 05:09:03;;;;;;;14.90;13.37;;;;;;;16.97;81.34;99956.22;5094927;28;20195;-74
2022/04/30 05:11:29;;;;;;;18.17;14.03;;;;;;;17.06;81.36;99955.69;5094847;28;20206;-75
2022/04/30 05:13:56;;;;;;;19.53;13.37;;;;;;;17.17;80.66;99959.47;5095490;28;20191;-74
2022/04/30 05:16:23;;;;;;;15.57;13.70;;;;;;;17.28;79.97;99953.34;5094522;28;20617;-74
2022/04/30 05:18:50;;;;;;;16.63;14.20;;;;;;;17.36;78.72;99958.38;5094478;28;20194;-74
2022/04/30 05:21:18;;;;;;;15.80;13.77;;;;;;;17.39;79.12;99960.63;5094336;28;20252;-74
2022/04/30 05:23:45;;;;;;;21.50;14.57;;;;;;;17.41;78.98;99959.38;5094927;28;20192;-76
2022/04/30 05:26:11;;;;;;;15.80;14.43;;;;;;;17.49;79.12;99961.75;5095258;28;20191;-75
2022/04/30 05:28:38;;;;;;;20.30;14.80;;;;;;;17.62;78.55;99961.53;5094581;28;20259;-74
2022/04/30 05:31:06;;;;;;;10.27;9.33;;;;;;;17.77;78.90;99967.28;5094257;28;20283;-69
2022/04/30 05:33:34;;;;;;;14.87;13.17;;;;;;;18.25;77.24;99967.13;5093913;28;20221;-70
2022/04/30 05:36:01;;;;;;;15.30;13.47;;;;;;;18.72;76.14;99972.25;5093882;28;20680;-72
2022/04/30 05:38:29;;;;;;;11.47;10.43;;;;;;;19.15;73.91;99985.25;5094664;28;20279;-72
2022/04/30 05:40:56;;;;;;;18.30;15.10;;;;;;;19.52;70.48;99994.63;5093352;28;20215;-76
2022/04/30 05:43:23;;;;;;;14.63;9.90;;;;;;;19.71;72.22;99993.34;5094286;28;20200;-76
2022/04/30 05:45:49;;;;;;;15.07;13.50;;;;;;;19.85;71.12;99997.38;5093909;28;20198;-75
2022/04/30 05:48:16;;;;;;;22.43;14.00;;;;;;;20.23;69.88;99998.34;5093536;28;20190;-78
2022/04/30 05:50:43;;;;;;;16.77;14.13;;;;;;;20.63;66.71;100011.63;5093893;28;20198;-75
2022/04/30 05:53:10;;;;;;;13.90;12.67;;;;;;;20.80;69.23;99996.19;5093838;28;20260;-81
2022/04/30 05:55:39;;;;;;;19.90;12.57;;;;;;;21.07;66.45;100007.09;5094021;28;20195;-78
2022/04/30 05:58:06;;;;;;;15.70;12.47;;;;;;;21.31;64.23;100014.69;5093426;28;20198;-79
2022/04/30 06:00:33;;;;;;;12.77;11.47;;;;;;;21.58;64.77;100020.13;5093267;28;20219;-78
2022/04/30 06:03:00;;;;;;;17.13;13.07;;;;;;;21.79;63.21;100021.97;5097679;28;20186;-76
2022/04/30 06:05:26;;;;;;;16.03;14.27;;;;;;;21.76;62.62;100012.50;5097722;28;20264;-76
2022/04/30 06:07:53;;;;;;;14.13;12.73;;;;;;;21.95;61.79;100021.88;5111670;28;20279;-75
2022/04/30 06:10:20;;;;;;;16.57;12.00;;;;;;;22.31;61.16;100021.13;5109997;28;20640;-76
2022/04/30 06:12:48;;;;;;;12.50;11.50;;;;;;;23.01;58.64;100012.63;5092963;28;20248;-73
2022/04/30 06:15:15;;;;;;;15.27;12.63;;;;;;;23.41;56.49;100018.25;5093365;28;20249;-75
2022/04/30 06:17:42;;;;;;;13.93;11.73;;;;;;;23.36;57.56;100000.06;5093599;28;20256;-72
2022/04/30 06:20:10;;;;;;;14.23;11.13;;;;;;;23.87;57.13;100009.94;5107394;28;20211;-78
2022/04/30 06:22:37;;;;;;;13.27;10.27;;;;;;;24.32;55.72;100001.84;5113735;28;20232;-78
2022/04/30 06:25:04;;;;;;;16.37;12.77;;;;;;;25.04;50.77;100021.25;5113266;28;20192;-79
2022/04/30 06:27:31;;;;;;;15.40;11.87;;;;;;;25.54;50.17;100024.88;5113772;28;20257;-77
2022/04/30 06:29:59;;;;;;;14.30;10.67;;;;;;;25.31;50.01;100025.56;5113511;28;20271;-75
2022/04/30 06:32:26;;;;;;;11.03;10.13;;;;;;;25.13;50.73;100023.41;5111495;28;20188;-76
2022/04/30 06:34:53;;;;;;;19.13;11.77;;;;;;;25.14;50.08;100020.41;5113014;28;20578;-77
2022/04/30 06:37:20;;;;;;;12.30;10.77;;;;;;;25.20;49.44;100018.47;5097712;28;20258;-78
2022/04/30 06:39:47;;;;;;;11.90;10.83;;;;;;;25.32;49.04;100021.72;5092957;28;20641;-77
2022/04/30 06:42:14;;;;;;;12.63;11.47;;;;;;;25.30;47.27;100021.19;5092454;28;20671;-76
2022/04/30 06:44:40;;;;;;;16.57;12.67;;;;;;;25.22;49.17;100016.28;5093454;28;20263;-75
2022/04/30 06:47:09;;;;;;;12.63;10.87;;;;;;;25.32;48.36;100019.00;5092435;28;20327;-77
2022/04/30 06:49:35;;;;;;;13.30;10.57;;;;;;;25.44;46.45;100024.94;5092263;28;20679;-75
2022/04/30 06:52:03;;;;;;;10.80;9.67;;;;;;;25.52;46.49;100016.19;5091719;28;20243;-78
2022/04/30 06:57:16;;;;;;;10.00;9.23;;;;;;;25.70;43.77;100015.53;5106087;28;20260;-78
2022/04/30 06:59:45;;;;;;;9.90;9.03;;;;;;;25.49;45.63;100019.47;5096561;28;20226;-78
2022/04/30 07:02:13;;;;;;;10.07;9.17;;;;;;;25.54;45.48;100011.28;5092467;28;20203;-78
2022/04/30 07:04:42;;;;;;;16.17;10.20;;;;;;;25.57;45.65;100006.09;5092476;28;20271;-80
2022/04/30 07:07:09;;;;;;;9.40;8.63;;;;;;;25.61;46.12;100000.91;5092203;28;20244;-80
2022/04/30 07:09:36;;;;;;;8.67;7.93;;;;;;;25.58;46.40;100005.00;5092321;28;20199;-78
2022/04/30 07:12:06;;;;;;;9.60;8.83;;;;;;;25.83;45.46;100012.16;5112427;28;20190;-80
2022/04/30 07:14:35;;;;;;;12.47;8.60;;;;;;;26.13;43.87;100012.00;5112333;28;20219;-80
2022/04/30 07:17:03;;;;;;;10.57;9.77;;;;;;;26.12;44.13;100015.78;5112360;28;20273;-80
2022/04/30 07:19:31;;;;;;;11.20;10.10;;;;;;;26.03;45.10;100006.63;5112396;28;20633;-82
2022/04/30 07:21:57;;;;;;;13.07;9.63;;;;;;;25.90;44.03;100012.66;5112920;28;20191;-82
2022/04/30 07:24:24;;;;;;;9.27;8.60;;;;;;;25.42;43.31;100018.94;5112702;28;20203;-81
2022/04/30 07:26:51;;;;;;;9.07;7.50;;;;;;;25.57;44.73;100011.53;5112672;28;20190;-77
2022/04/30 07:29:18;;;;;;;7.53;6.93;;;;;;;25.88;44.01;100021.13;5112151;28;20198;-78
2022/04/30 07:31:45;;;;;;;8.40;7.90;;;;;;;26.01;42.05;100019.72;5112228;28;20663;-80
2022/04/30 07:34:12;;;;;;;8.70;7.90;;;;;;;25.87;41.32;100007.78;5112589;28;20194;-79
2022/04/30 07:36:41;;;;;;;7.93;7.17;;;;;;;25.71;43.67;100008.97;5112574;28;20274;-78
2022/04/30 07:39:08;;;;;;;9.47;7.77;;;;;;;25.56;43.36;100007.16;5111758;28;20704;-75
2022/04/30 07:41:35;;;;;;;7.57;6.90;;;;;;;25.72;44.26;100010.63;5112428;28;20218;-76
2022/04/30 07:44:02;;;;;;;12.63;8.43;;;;;;;26.10;42.22;100007.09;5112649;28;20201;-73
2022/04/30 07:46:28;;;;;;;8.23;7.50;;;;;;;26.27;42.89;100007.50;5112331;28;20236;-74
2022/04/30 07:48:55;;;;;;;9.97;9.33;;;;;;;26.34;40.71;100008.00;5112228;28;20194;-74
2022/04/30 07:51:34;;;;;;;10.90;10.07;;;;;;;26.29;41.50;100010.78;5112256;28;20226;-71
2022/04/30 07:54:02;;;;;;;7.30;6.67;;;;;;;26.49;41.17;100005.09;5112009;28;20187;-71
2022/04/30 07:56:29;;;;;;;9.07;8.27;;;;;;;26.70;40.62;100012.03;5111537;28;20203;-74
2022/04/30 07:58:56;;;;;;;8.43;7.73;;;;;;;27.13;40.14;100005.53;5112651;28;20251;-75
2022/04/30 08:01:23;;;;;;;7.77;7.27;;;;;;;27.47;39.67;100011.66;5111734;28;20248;-74
2022/04/30 08:03:50;;;;;;;7.67;7.07;;;;;;;27.65;38.20;100008.94;5113597;28;20194;-73
2022/04/30 08:06:16;;;;;;;8.40;7.77;;;;;;;27.80;38.15;99995.06;5116091;28;20226;-74
2022/04/30 08:08:43;;;;;;;8.10;7.30;;;;;;;27.66;38.96;99996.09;5116145;28;20226;-74
2022/04/30 08:11:12;;;;;;;7.87;7.37;;;;;;;27.46;39.31;99999.94;5103006;28;20203;-74
2022/04/30 08:13:39;;;;;;;9.13;7.10;;;;;;;27.53;39.75;99996.84;5095656;28;20206;-73
2022/04/30 08:16:09;;;;;;;7.57;6.97;;;;;;;27.76;38.52;99994.03;5095668;28;20187;-73
2022/04/30 08:18:36;;;;;;;8.93;8.43;;;;;;;28.08;35.60;100004.22;5095485;28;20197;-68
2022/04/30 08:21:04;;;;;;;9.60;8.90;;;;;;;28.00;36.01;99999.44;5095496;28;20216;-68
2022/04/30 08:23:31;;;;;;;13.30;9.77;;;;;;;27.61;39.89;99990.72;5095243;28;20261;-72
2022/04/30 08:25:57;;;;;;;15.33;10.13;;;;;;;27.47;39.71;99984.34;5093684;28;20192;-71
2022/04/30 08:28:25;;;;;;;8.53;7.93;;;;;;;27.40;36.48;100000.31;5091212;28;20203;-81
2022/04/30 08:30:52;;;;;;;8.53;7.97;;;;;;;27.08;37.85;99989.22;5112338;28;20195;-86
2022/04/30 08:33:19;;;;;;;8.53;8.10;;;;;;;27.13;37.15;99986.44;5115858;28;20190;-80
2022/04/30 08:35:46;;;;;;;7.73;7.30;;;;;;;27.32;37.04;99985.38;5112043;28;20190;-79
2022/04/30 08:38:13;;;;;;;8.50;7.80;;;;;;;27.31;36.67;99985.69;5094397;28;20207;-72
2022/04/30 08:40:43;;;;;;;7.40;7.00;;;;;;;27.18;36.44;99986.38;5095068;28;20219;-72
2022/04/30 08:43:11;;;;;;;8.77;8.07;;;;;;;27.05;36.69;99978.91;5094855;28;20253;-70
2022/04/30 08:45:41;;;;;;;8.43;7.70;;;;;;;26.97;36.79;99971.34;5094663;28;20560;-72
2022/04/30 08:48:09;;;;;;;9.77;7.57;;;;;;;26.65;37.20;99973.91;5094582;28;20232;-72
2022/04/30 08:50:36;;;;;;;8.10;7.40;;;;;;;26.50;38.24;99968.59;5094602;28;20199;-72
2022/04/30 08:53:03;;;;;;;8.63;8.03;;;;;;;26.44;38.19;99970.56;5094631;28;20577;-72
2022/04/30 08:55:30;;;;;;;8.70;8.00;;;;;;;26.64;37.27;99969.56;5093357;28;20191;-73
2022/04/30 08:57:57;;;;;;;8.43;7.83;;;;;;;26.47;37.35;99961.00;5097421;28;20268;-74
2022/04/30 09:00:24;;;;;;;8.53;8.03;;;;;;;26.17;37.19;99958.56;5112623;28;21070;-74
2022/04/30 09:02:53;;;;;;;9.63;8.83;;;;;;;25.81;38.68;99955.31;5113544;28;20255;-74
2022/04/30 09:05:20;;;;;;;9.73;8.57;;;;;;;25.43;39.24;99952.59;5112703;28;20190;-74
2022/04/30 09:07:54;;;;;;;7.53;7.07;;;;;;;25.27;39.30;99951.00;5112712;28;20284;-75
2022/04/30 09:10:25;;;;;;;7.40;7.00;;;;;;;25.44;39.22;99938.69;5106699;28;20189;-76
2022/04/30 09:12:52;;;;;;;32.53;9.00;;;;;;;25.67;38.72;99942.59;5092573;28;20199;-73
2022/04/30 09:15:19;;;;;;;7.40;6.90;;;;;;;25.83;37.14;99936.78;5091274;28;20195;-73
2022/04/30 09:17:57;;;;;;;7.67;7.10;;;;;;;25.99;36.90;99942.94;5092024;28;20680;-77
2022/04/30 09:20:23;;;;;;;6.67;6.17;;;;;;;26.20;36.55;99947.09;5092008;28;20297;-79
2022/04/30 09:22:51;;;;;;;7.13;6.73;;;;;;;26.03;37.45;99936.63;5088116;28;20631;-77
2022/04/30 09:25:19;;;;;;;6.50;5.77;;;;;;;25.99;37.51;99945.66;5091941;28;20226;-77
2022/04/30 09:27:48;;;;;;;6.50;6.03;;;;;;;26.17;36.22;99950.41;5091941;28;20620;-76
2022/04/30 09:30:17;;;;;;;6.13;5.53;;;;;;;26.58;34.31;99944.28;5091722;28;20192;-77
2022/04/30 09:32:44;;;;;;;6.10;5.70;;;;;;;26.90;34.79;99936.25;5091748;28;20679;-77
2022/04/30 09:38:04;;;;;;;5.80;5.50;;;;;;;27.18;33.29;99937.25;5092019;28;20182;-77
2022/04/30 09:40:31;;;;;;;7.00;6.60;;;;;;;27.36;33.59;99931.06;5091551;28;20755;-77
2022/04/30 09:43:00;;;;;;;6.53;6.13;;;;;;;27.53;33.58;99928.59;5090625;28;20192;-77
2022/04/30 09:45:30;;;;;;;9.70;6.40;;;;;;;27.35;33.88;99926.66;5090015;28;20203;-77
2022/04/30 09:47:59;;;;;;;5.60;5.20;;;;;;;27.44;32.86;99917.53;5090029;28;20566;-77
2022/04/30 09:55:54;;;;;;;5.30;5.00;;;;;;;27.42;34.27;99880.72;5082781;28;20202;-73
2022/04/30 09:58:23;;;;;;;5.30;5.00;;;;;;;27.51;33.23;99887.97;5091496;28;20645;-77
2022/04/30 10:00:55;;;;;;;4.33;4.13;;;;;;;27.73;32.13;99892.78;5091871;28;20302;-82
2022/04/30 10:03:27;;;;;;;3.77;3.57;;;;;;;27.72;31.64;99885.72;5092365;28;20242;-77
2022/04/30 10:05:59;;;;;;;4.13;3.93;;;;;;;26.99;32.28;99892.81;5091738;28;20754;-76
2022/04/30 10:08:28;;;;;;;4.20;4.00;;;;;;;27.09;32.37;99884.47;5092208;28;20179;-77
2022/04/30 10:11:07;;;;;;;4.20;3.90;;;;;;;27.19;32.65;99885.13;5092365;28;20199;-81
2022/04/30 10:13:42;;;;;;;3.73;3.63;;;;;;;27.26;32.08;99882.88;5092512;28;20248;-82
2022/04/30 10:16:17;;;;;;;3.93;3.73;;;;;;;27.36;31.64;99895.56;5092610;28;20377;-83
2022/04/30 10:18:46;;;;;;;3.93;3.73;;;;;;;27.34;31.95;99886.84;5092764;28;20187;-82
2022/04/30 10:21:19;;;;;;;5.33;4.07;;;;;;;26.65;33.36;99878.50;5092433;28;20766;-81
2022/04/30 10:23:46;;;;;;;4.17;3.80;;;;;;;26.18;34.25;99859.41;5092749;28;20187;-80
2022/04/30 10:26:14;;;;;;;3.80;3.60;;;;;;;26.24;34.00;99867.25;5092105;28;20700;-79
2022/04/30 10:28:40;;;;;;;3.87;3.57;;;;;;;26.20;33.83;99868.09;5092294;28;20191;-81
2022/04/30 10:31:09;;;;;;;3.67;3.47;;;;;;;26.15;33.36;99874.44;5092040;28;20581;-82
2022/04/30 10:33:47;;;;;;;3.97;3.77;;;;;;;26.01;33.94;99864.50;5091530;28;20218;-82
2022/04/30 10:36:14;;;;;;;4.13;3.93;;;;;;;25.73;34.41;99865.28;5091940;28;20191;-79
2022/04/30 10:38:43;;;;;;;3.77;3.67;;;;;;;25.71;34.21;99864.72;5092237;28;20187;-80
2022/04/30 10:41:11;;;;;;;3.43;3.23;;;;;;;25.95;33.11;99862.91;5091830;28;20230;-78
2022/04/30 10:43:39;;;;;;;3.83;3.50;;;;;;;26.23;32.04;99860.19;5091042;28;20261;-79
2022/04/30 10:46:07;;;;;;;3.43;3.23;;;;;;;26.28;32.50;99856.56;5092031;28;20256;-80
2022/04/30 10:48:35;;;;;;;3.70;3.50;;;;;;;25.86;32.38;99856.44;5092104;28;20187;-72
2022/04/30 10:51:04;;;;;;;3.10;2.90;;;;;;;25.69;33.02;99851.44;5091724;28;20279;-73
2022/04/30 10:53:33;;;;;;;2.90;2.80;;;;;;;25.90;32.84;99854.78;5092404;28;20282;-74
2022/04/30 10:56:01;;;;;;;3.13;3.03;;;;;;;25.85;32.82;99849.38;5091976;28;20282;-75
2022/04/30 10:58:30;;;;;;;3.33;3.13;;;;;;;25.95;32.99;99854.75;5092489;28;20195;-75
2022/04/30 11:00:58;;;;;;;3.40;3.20;;;;;;;25.85;33.50;99852.09;5091587;28;20599;-76
2022/04/30 11:03:27;;;;;;;3.60;3.40;;;;;;;25.75;33.46;99853.00;5092081;28;20656;-76
2022/04/30 11:05:55;;;;;;;3.57;3.37;;;;;;;25.59;33.46;99854.22;5091933;28;20223;-76
2022/04/30 11:08:22;;;;;;;3.63;3.43;;;;;;;25.52;33.42;99852.94;5092030;28;20187;-73
2022/04/30 11:10:52;;;;;;;2.90;2.80;;;;;;;25.40;33.15;99833.44;5101451;28;20202;-72
2022/04/30 11:13:20;;;;;;;3.50;3.30;;;;;;;25.31;33.67;99843.31;5112680;28;20194;-71
2022/04/30 11:15:48;;;;;;;3.10;2.90;;;;;;;25.22;33.88;99836.78;5112011;28;20193;-72
2022/04/30 11:18:19;;;;;;;3.27;3.07;;;;;;;25.31;33.96;99837.88;5112428;28;20610;-72
2022/04/30 11:20:46;;;;;;;3.47;3.30;;;;;;;25.21;34.33;99835.19;5112030;28;20243;-72
2022/04/30 11:23:22;;;;;;;3.10;2.90;;;;;;;25.06;34.64;99827.94;5112417;28;20191;-72
2022/04/30 11:25:48;;;;;;;3.17;3.07;;;;;;;24.98;34.78;99825.03;5111824;28;20650;-72
2022/04/30 11:28:15;;;;;;;3.17;3.07;;;;;;;25.06;34.31;99816.28;5112438;28;20264;-72
2022/04/30 11:30:44;;;;;;;3.30;3.10;;;;;;;25.20;34.67;99819.97;5111868;28;20194;-73
2022/04/30 11:33:12;;;;;;;3.43;3.23;;;;;;;25.22;35.25;99815.03;5112051;28;20239;-72
2022/04/30 11:35:40;;;;;;;3.63;3.33;;;;;;;25.07;35.41;99809.72;5112057;28;20649;-72
2022/04/30 11:38:10;;;;;;;7.87;3.37;;;;;;;24.89;35.43;99822.91;5112562;28;20255;-72
2022/04/30 11:40:42;;;;;;;8.60;3.03;;;;;;;24.94;34.40;99811.16;5116571;28;20251;-73
2022/04/30 11:43:09;;;;;;;3.00;2.70;;;;;;;25.05;33.93;99810.00;5116316;28;20647;-73
2022/04/30 11:45:35;;;;;;;20.83;3.73;;;;;;;24.91;34.64;99809.81;5116239;28;20667;-76
2022/04/30 11:48:04;;;;;;;2.40;2.30;;;;;;;25.13;33.37;99805.88;5116323;28;20190;-74
2022/04/30 11:50:31;;;;;;;2.27;2.17;;;;;;;25.18;32.59;99808.56;5116602;28;20193;-75
2022/04/30 11:52:59;;;;;;;2.70;2.50;;;;;;;24.96;33.07;99807.06;5116053;28;20739;-77
2022/04/30 11:55:25;;;;;;;2.80;2.60;;;;;;;25.13;33.66;99801.25;5115983;28;20195;-79